Aspen, CO

6:41 AM MDT on May 24, 2015 (GMT -0600)
Pitkin County Government Offices | | Change Station
CLOSE
Current Station
Personal Weather Station
Location: Aspen, CO
Elevation: 7917 ft
Nearby Weather Stations

Elev 7917 ft 39.19 °N, 106.82 °W | Updated 11 seconds ago

Overcast
Overcast
37.2 °F
Feels Like 37 °F
N
2.0
Wind Variable Wind from ENE
Gusts 2.0 mph

Today
High -- | Low -- °F
--% Chance of Precip.
Yesterday
High -- | Low -- °F
Precip. -- in
5:47 AM 8:21 PM
Waxing Crescent, 39% visible
Pressure 30.00 in
Visibility 10.0 miles
Clouds Few 1700 ft
Scattered Clouds 2800 ft
Overcast 7000 ft
Windchill 37 °F
Dew Point 34 °F
Humidity 87%
Rainfall 0.00 in
Snow Depth Not available.
UV 0.0 out of 12
Pollen 7.00 out of 12
Air Quality Not available.
Flu Activity Sporadic
SPECI KASE 241214Z AUTO 00000KT 10SM FEW017 SCT028 OVC070 02/01 A3000 RMK AO2 T00220006

More Conditions Fewer Conditions

Pressure 30.00 in
Visibility 10.0 miles
Clouds Few 1700 ft
Scattered Clouds 2800 ft
Overcast 7000 ft
Windchill 37 °F
Dew Point 34 °F
Humidity 87%
Rainfall 0.00 in
Snow Depth Not available.
UV 0.0 out of 12
Pollen 7.00 out of 12
Air Quality Not available.
Flu Activity Sporadic
SPECI KASE 241214Z AUTO 00000KT 10SM FEW017 SCT028 OVC070 02/01 A3000 RMK AO2 T00220006

More Conditions Fewer Conditions

10-Day Weather Forecast

Almanac

Astronomy

May. 24, 2015 Rise Set
Actual Time
Civil Twilight
Nautical Twilight
Astronomical Twilight
Moon
Length of Visible Light
Length of Day
Tomorrow will be .
, % of the Moon is Illuminated

Today's Extremes

State Highs State Lows

Community

WunderPhotos

Upload Photos

1,823,722 photos uploaded!

WunderBlogs® & News

Nearby

Air Quality

  Air Quality AQ Index Pollutant
Not available.

Snow Depth

Station Depth Elevation

Earthquake Activity

City Distance Mag. Time & Date
Minimum magnitude displayed is 2.5.

Coastal Water Temperatures

Place Temperature

Stations

Nearby Weather Stations

Station Location Temp. Windchill Dew Point Humidity Wind Precip. Elev Updated Type